Time;durP1;ratioP1;P1;durP2;ratioP2;P2;SDS_P1;SDS_P2;PMS_P1;PMS_P2;Temp;Humidity;BMP_temperature;BMP_pressure;BME280_temperature;BME280_humidity;BME280_pressure;Samples;Min_cycle;Max_cycle;Signal;HPM_P1;HPM_P2
2021/06/12 00:00:25;;;;;;;5.82;5.13;;;;;;;19.76;66.02;100745.13;3543887;40;20371;-42
2021/06/12 00:02:52;;;;;;;5.65;5.15;;;;;;;20.02;65.18;100750.03;3543916;40;20062;-43
2021/06/12 00:05:19;;;;;;;6.15;5.10;;;;;;;19.51;67.11;100752.28;3543918;40;20054;-43
2021/06/12 00:07:46;;;;;;;5.88;5.22;;;;;;;19.74;66.51;100751.22;3543906;40;20066;-43
2021/06/12 00:10:20;;;;;;;5.78;5.20;;;;;;;19.61;67.02;100745.28;3544290;40;20097;-42
2021/06/12 00:12:48;;;;;;;5.95;5.35;;;;;;;19.64;65.87;100749.56;3544156;40;20061;-43
2021/06/12 00:15:18;;;;;;;8.43;5.00;;;;;;;19.69;66.30;100740.00;3543996;40;20056;-43
2021/06/12 00:17:46;;;;;;;5.53;5.03;;;;;;;19.56;66.99;100747.91;3543405;40;20051;-43
2021/06/12 00:20:19;;;;;;;5.80;5.20;;;;;;;19.18;68.22;100747.41;3542320;40;20061;-43
2021/06/12 00:22:47;;;;;;;6.55;5.78;;;;;;;19.34;67.79;100747.25;3538569;40;20038;-43
2021/06/12 00:25:17;;;;;;;5.95;5.45;;;;;;;19.12;69.00;100740.53;3543727;40;20050;-42
2021/06/12 00:27:44;;;;;;;8.75;5.47;;;;;;;19.13;69.22;100743.97;3543835;40;20058;-46
2021/06/12 00:30:12;;;;;;;6.18;5.47;;;;;;;19.10;68.82;100744.88;3543777;40;20062;-43
2021/06/12 00:32:40;;;;;;;6.32;5.82;;;;;;;19.18;69.64;100744.78;3542361;40;20078;-43
2021/06/12 00:35:10;;;;;;;6.95;6.30;;;;;;;18.86;70.41;100735.56;3542085;40;20073;-42
2021/06/12 00:37:38;;;;;;;9.00;6.30;;;;;;;19.09;69.47;100737.97;3541823;40;20681;-43
2021/06/12 00:40:11;;;;;;;6.45;5.85;;;;;;;19.19;69.48;100738.75;3541663;40;20450;-43
2021/06/12 00:42:39;;;;;;;7.88;6.40;;;;;;;19.15;68.82;100732.72;3543620;40;20369;-43
2021/06/12 00:45:18;;;;;;;6.82;6.00;;;;;;;18.95;69.56;100721.63;3540302;40;20060;-43
2021/06/12 00:47:47;;;;;;;6.75;6.07;;;;;;;18.96;69.30;100715.59;3542833;40;20069;-43
2021/06/12 00:50:15;;;;;;;8.55;6.93;;;;;;;18.79;69.89;100713.13;3544332;40;20070;-43
2021/06/12 00:52:43;;;;;;;6.60;6.05;;;;;;;18.88;69.84;100715.66;3543970;40;20087;-42
2021/06/12 00:55:14;;;;;;;8.35;6.10;;;;;;;18.90;69.66;100718.22;3544007;40;20078;-43
2021/06/12 00:57:43;;;;;;;6.50;6.00;;;;;;;18.80;70.07;100715.69;3543778;40;20094;-42
2021/06/12 01:00:13;;;;;;;7.40;6.28;;;;;;;18.81;69.96;100709.66;3543901;40;20365;-43
2021/06/12 01:02:41;;;;;;;7.68;6.30;;;;;;;18.72;70.68;100707.13;3543596;40;20090;-42
2021/06/12 01:05:10;;;;;;;6.75;6.10;;;;;;;18.94;70.18;100717.31;3543473;40;20061;-43
2021/06/12 01:07:37;;;;;;;7.28;6.63;;;;;;;18.84;70.19;100708.75;3541545;40;20093;-44
2021/06/12 01:10:07;;;;;;;6.38;5.38;;;;;;;19.29;69.38;100715.28;3543606;40;20117;-43
2021/06/12 01:13:00;;;;;;;8.32;6.15;;;;;;;19.00;69.40;100707.78;3541634;40;20078;-43
2021/06/12 01:15:37;;;;;;;8.07;6.63;;;;;;;18.87;70.59;100700.97;3541502;40;20046;-43
2021/06/12 01:18:08;;;;;;;7.88;6.50;;;;;;;19.35;69.34;100709.16;3539585;40;20624;-42
2021/06/12 01:20:38;;;;;;;7.85;6.80;;;;;;;19.71;66.76;100700.13;3539741;40;20083;-43
2021/06/12 01:23:33;;;;;;;7.22;6.63;;;;;;;19.30;68.99;100697.97;3535314;40;20067;-45
2021/06/12 01:26:23;;;;;;;7.47;6.78;;;;;;;19.67;66.76;100689.81;3539294;40;20102;-41
2021/06/12 01:29:20;;;;;;;7.18;6.57;;;;;;;19.39;68.03;100684.03;3537557;40;20091;-43
2021/06/12 01:31:49;;;;;;;7.47;6.68;;;;;;;19.56;67.20;100680.38;3538077;40;20054;-43
2021/06/12 01:34:20;;;;;;;7.22;6.53;;;;;;;19.64;66.81;100672.50;3539092;40;20312;-43
2021/06/12 01:36:48;;;;;;;7.78;6.97;;;;;;;19.53;67.72;100672.59;3538239;40;20133;-46
2021/06/12 01:39:20;;;;;;;8.48;7.07;;;;;;;19.84;65.99;100680.06;3538946;40;20470;-43
2021/06/12 01:41:49;;;;;;;8.43;7.63;;;;;;;19.79;65.82;100680.13;3538298;40;20099;-44
2021/06/12 01:44:18;;;;;;;8.00;7.30;;;;;;;19.48;67.34;100684.78;3538711;40;20081;-42
2021/06/12 01:46:47;;;;;;;9.70;6.70;;;;;;;19.72;66.94;100682.81;3537985;40;20294;-43
2021/06/12 01:49:15;;;;;;;9.32;7.95;;;;;;;19.59;66.81;100674.25;3538882;40;20428;-43
2021/06/12 01:52:00;;;;;;;8.95;8.18;;;;;;;19.79;66.13;100680.13;3537940;40;20465;-42
2021/06/12 01:54:31;;;;;;;9.40;8.52;;;;;;;19.74;66.21;100676.72;3538162;40;20351;-43
2021/06/12 01:56:59;;;;;;;9.75;8.75;;;;;;;19.88;66.01;100684.34;3539233;40;20051;-45
2021/06/12 01:59:30;;;;;;;8.45;7.68;;;;;;;19.80;67.21;100691.38;3538269;40;20706;-42
2021/06/12 02:02:01;;;;;;;10.82;9.82;;;;;;;19.59;68.21;100687.25;3538678;40;20176;-43
2021/06/12 02:04:29;;;;;;;11.15;9.80;;;;;;;19.28;69.20;100694.53;3537746;40;20065;-43
2021/06/12 02:07:02;;;;;;;11.20;9.50;;;;;;;19.37;68.98;100681.47;3538387;40;20046;-44
2021/06/12 02:09:32;;;;;;;11.65;10.50;;;;;;;19.46;69.03;100685.66;3537851;40;20453;-42
2021/06/12 02:11:59;;;;;;;10.73;9.68;;;;;;;19.30;69.96;100682.38;3538775;40;20119;-42
2021/06/12 02:14:27;;;;;;;11.25;10.18;;;;;;;19.23;70.14;100681.59;3538605;40;20082;-43
2021/06/12 02:16:57;;;;;;;12.82;10.13;;;;;;;19.08;71.04;100690.38;3538909;40;20061;-44
2021/06/12 02:19:25;;;;;;;12.32;10.80;;;;;;;18.76;72.57;100684.59;3538812;40;20342;-43
2021/06/12 02:21:52;;;;;;;12.70;11.40;;;;;;;18.92;71.74;100673.22;3538602;40;20050;-42
2021/06/12 02:24:19;;;;;;;11.73;10.52;;;;;;;18.80;72.39;100673.31;3538475;40;20081;-43
2021/06/12 02:26:51;;;;;;;11.50;10.40;;;;;;;19.09;71.47;100678.28;3538210;40;20098;-42
2021/06/12 02:29:23;;;;;;;11.05;10.05;;;;;;;19.03;72.00;100680.91;3538638;40;20046;-43
2021/06/12 02:31:56;;;;;;;16.08;10.82;;;;;;;18.91;72.47;100678.44;3537983;40;20234;-43
2021/06/12 02:34:23;;;;;;;11.23;10.23;;;;;;;19.00;72.62;100681.81;3538211;40;20049;-44
2021/06/12 02:36:50;;;;;;;13.27;11.73;;;;;;;18.89;72.75;100677.56;3537987;40;20087;-45
2021/06/12 02:39:17;;;;;;;11.68;10.45;;;;;;;18.97;72.86;100680.97;3538342;40;20090;-43
2021/06/12 02:41:44;;;;;;;14.20;11.60;;;;;;;18.97;72.52;100679.22;3539811;40;20070;-42
2021/06/12 02:44:11;;;;;;;13.23;12.02;;;;;;;18.72;73.00;100669.94;3538792;40;20085;-43
2021/06/12 02:46:41;;;;;;;12.93;11.65;;;;;;;18.49;74.78;100672.69;3537380;40;20063;-45
2021/06/12 02:49:10;;;;;;;13.15;11.68;;;;;;;18.58;74.87;100678.66;3537326;40;20082;-42
2021/06/12 02:51:41;;;;;;;12.48;11.18;;;;;;;19.03;72.40;100686.94;3537264;40;20409;-42
2021/06/12 02:54:09;;;;;;;13.07;11.77;;;;;;;18.87;73.39;100676.75;3535656;40;20117;-44
2021/06/12 02:56:37;;;;;;;11.88;10.80;;;;;;;18.74;74.16;100673.38;3537410;40;20069;-42
2021/06/12 02:59:10;;;;;;;12.98;11.60;;;;;;;18.75;74.22;100675.09;3539783;40;20122;-45
2021/06/12 03:01:41;;;;;;;13.23;11.38;;;;;;;18.64;74.71;100676.91;3537364;40;20341;-43
2021/06/12 03:04:15;;;;;;;13.15;11.93;;;;;;;18.59;75.17;100679.53;3535055;40;20395;-42
2021/06/12 03:06:45;;;;;;;13.93;12.18;;;;;;;18.50;75.17;100677.84;3537234;40;20432;-47
2021/06/12 03:09:15;;;;;;;12.98;11.80;;;;;;;18.91;73.96;100681.03;3538603;40;20070;-42
2021/06/12 03:11:44;;;;;;;12.80;11.50;;;;;;;19.04;73.32;100674.84;3537237;40;20106;-43
2021/06/12 03:14:13;;;;;;;12.85;11.65;;;;;;;18.74;74.66;100679.44;3538839;40;20455;-43
2021/06/12 03:16:42;;;;;;;12.23;10.98;;;;;;;18.82;74.79;100677.63;3537104;40;20523;-45
2021/06/12 03:19:12;;;;;;;14.45;12.98;;;;;;;18.70;74.71;100680.31;3538965;40;20094;-44
2021/06/12 03:21:41;;;;;;;13.90;12.45;;;;;;;18.63;75.57;100678.63;3537005;40;20087;-43
2021/06/12 03:24:11;;;;;;;13.40;12.23;;;;;;;18.89;73.86;100670.66;3534737;40;20083;-42
2021/06/12 03:26:39;;;;;;;14.00;12.80;;;;;;;18.72;75.55;100667.31;3536988;40;20059;-43
2021/06/12 03:29:09;;;;;;;14.13;12.82;;;;;;;18.94;74.47;100676.66;3539131;40;20425;-42
2021/06/12 03:31:36;;;;;;;14.32;12.93;;;;;;;18.98;74.56;100683.53;3539087;40;20057;-42
2021/06/12 03:34:03;;;;;;;13.82;12.55;;;;;;;18.90;75.06;100694.84;3536520;40;20066;-45
2021/06/12 03:36:31;;;;;;;14.43;13.02;;;;;;;18.64;75.86;100689.88;3537079;40;20102;-45
2021/06/12 03:38:58;;;;;;;13.82;12.55;;;;;;;18.69;76.36;100698.50;3538171;40;20063;-43
2021/06/12 03:41:25;;;;;;;14.27;12.85;;;;;;;18.77;76.05;100692.38;3538065;40;20058;-43
2021/06/12 03:43:53;;;;;;;14.13;12.75;;;;;;;18.94;75.79;100702.59;3538104;40;20075;-43
2021/06/12 03:46:21;;;;;;;14.55;13.07;;;;;;;18.93;75.55;100708.69;3538145;40;20090;-43
2021/06/12 03:48:49;;;;;;;14.70;13.32;;;;;;;19.00;76.19;100709.50;3537420;40;20161;-44
2021/06/12 03:51:18;;;;;;;14.43;12.30;;;;;;;19.08;75.65;100705.94;3538560;40;20097;-43
2021/06/12 03:53:47;;;;;;;13.63;12.43;;;;;;;19.22;75.40;100705.81;3538888;40;20074;-43
2021/06/12 03:56:16;;;;;;;13.60;12.38;;;;;;;19.25;75.76;100703.19;3540104;40;20065;-43
2021/06/12 03:58:46;;;;;;;16.00;12.82;;;;;;;19.17;76.33;100701.53;3538840;40;20090;-43
2021/06/12 04:01:17;;;;;;;14.20;12.70;;;;;;;19.13;76.66;100705.03;3539984;40;20145;-43
2021/06/12 04:03:45;;;;;;;14.38;12.95;;;;;;;19.17;76.84;100711.94;3538595;40;20066;-43
2021/06/12 04:06:12;;;;;;;14.30;12.20;;;;;;;19.23;76.51;100702.38;3539950;40;20054;-43
2021/06/12 04:08:40;;;;;;;14.88;12.45;;;;;;;19.07;77.69;100700.78;3538238;40;20094;-42
2021/06/12 04:11:09;;;;;;;13.63;12.23;;;;;;;19.41;76.68;100700.44;3537828;40;20052;-43
2021/06/12 04:13:40;;;;;;;12.90;11.70;;;;;;;19.28;76.87;100702.31;3537878;40;20157;-43
2021/06/12 04:16:10;;;;;;;11.73;10.73;;;;;;;19.42;76.19;100700.44;3536148;40;20053;-44
2021/06/12 04:18:41;;;;;;;12.93;11.82;;;;;;;19.42;76.43;100705.63;3538209;40;20133;-44
2021/06/12 04:21:10;;;;;;;12.18;11.05;;;;;;;19.25;77.80;100700.59;3540131;40;20551;-43
2021/06/12 04:23:38;;;;;;;11.23;9.88;;;;;;;19.42;77.28;100695.25;3538628;40;20059;-43
2021/06/12 04:26:05;;;;;;;11.45;10.32;;;;;;;19.61;76.18;100700.28;3538065;40;20092;-44
2021/06/12 04:28:32;;;;;;;10.98;10.00;;;;;;;19.55;76.23;100696.84;3536438;40;20509;-43
2021/06/12 04:31:00;;;;;;;10.77;9.88;;;;;;;19.71;75.98;100705.34;3539419;40;20140;-43
2021/06/12 04:33:27;;;;;;;11.60;10.43;;;;;;;19.56;77.17;100697.69;3538923;40;20074;-44
2021/06/12 04:35:56;;;;;;;12.25;9.85;;;;;;;19.70;77.39;100700.16;3539199;40;20062;-43
2021/06/12 04:38:23;;;;;;;12.50;9.68;;;;;;;19.73;76.73;100695.78;3539088;40;20054;-44
2021/06/12 04:40:52;;;;;;;11.73;9.10;;;;;;;20.07;75.69;100683.22;3539061;40;20058;-49
2021/06/12 04:43:20;;;;;;;10.18;9.15;;;;;;;20.07;75.94;100672.81;3539543;40;20042;-44
2021/06/12 04:45:48;;;;;;;9.23;8.38;;;;;;;20.42;73.93;100668.84;3538667;40;20083;-43
2021/06/12 04:48:14;;;;;;;11.93;9.45;;;;;;;20.35;74.97;100672.44;3539694;40;20066;-45
2021/06/12 04:50:42;;;;;;;8.88;8.00;;;;;;;20.62;73.79;100681.59;3540320;40;20145;-43
2021/06/12 04:53:11;;;;;;;9.38;8.48;;;;;;;20.28;76.28;100689.84;3539853;40;20054;-45
2021/06/12 04:55:38;;;;;;;7.82;7.15;;;;;;;20.76;73.69;100692.66;3538077;40;20055;-46
2021/06/12 04:58:06;;;;;;;8.98;8.18;;;;;;;20.83;73.60;100698.59;3537897;40;20035;-45
2021/06/12 05:00:33;;;;;;;7.93;7.13;;;;;;;20.50;74.90;100694.78;3536487;40;20078;-47
2021/06/12 05:03:01;;;;;;;7.57;6.88;;;;;;;20.59;74.59;100694.66;3539415;40;20097;-44
2021/06/12 05:05:28;;;;;;;7.55;6.57;;;;;;;20.70;73.63;100692.72;3538514;40;20373;-44
2021/06/12 05:07:55;;;;;;;8.07;6.57;;;;;;;20.90;72.98;100694.16;3539069;40;20047;-44
2021/06/12 05:10:23;;;;;;;6.50;5.60;;;;;;;20.96;72.09;100692.31;3537988;40;20338;-44
2021/06/12 05:12:51;;;;;;;7.10;6.40;;;;;;;20.75;73.27;100683.13;3538821;40;20055;-48
2021/06/12 05:15:20;;;;;;;6.53;5.88;;;;;;;21.19;71.67;100680.63;3539478;40;20053;-44
2021/06/12 05:17:48;;;;;;;6.50;5.90;;;;;;;20.90;72.46;100681.16;3538798;40;20553;-46
2021/06/12 05:20:16;;;;;;;6.18;5.68;;;;;;;21.04;72.83;100685.22;3541644;40;20056;-43
2021/06/12 05:22:43;;;;;;;14.65;7.65;;;;;;;20.84;74.29;100677.75;3539671;40;20087;-44
2021/06/12 05:25:10;;;;;;;11.55;6.85;;;;;;;20.86;74.52;100680.34;3540373;40;20086;-43
2021/06/12 05:27:37;;;;;;;14.77;7.28;;;;;;;21.11;73.18;100688.56;3538447;40;20061;-45
2021/06/12 05:30:05;;;;;;;8.57;5.88;;;;;;;21.21;72.70;100684.03;3540335;40;20057;-45
2021/06/12 05:32:32;;;;;;;10.18;6.32;;;;;;;21.38;71.33;100691.59;3538617;40;20393;-47
2021/06/12 05:35:01;;;;;;;6.32;5.70;;;;;;;21.78;68.73;100689.94;3542503;40;20058;-44
2021/06/12 05:37:28;;;;;;;6.03;5.43;;;;;;;21.62;69.53;100696.31;3543290;40;20047;-43
2021/06/12 05:39:56;;;;;;;11.40;6.13;;;;;;;21.67;70.59;100696.22;3542095;40;20463;-44
2021/06/12 05:42:23;;;;;;;5.72;4.65;;;;;;;21.56;71.08;100692.09;3543126;40;20524;-45
2021/06/12 05:44:50;;;;;;;5.22;4.72;;;;;;;22.15;68.47;100699.59;3542907;40;20075;-45
2021/06/12 05:47:18;;;;;;;5.53;5.03;;;;;;;22.03;68.47;100702.44;3541806;40;20053;-44
2021/06/12 05:49:45;;;;;;;6.03;4.70;;;;;;;22.25;66.52;100703.72;3541743;40;20400;-44
2021/06/12 05:52:12;;;;;;;5.47;4.97;;;;;;;21.92;68.28;100697.47;3543441;40;20058;-44
2021/06/12 05:54:39;;;;;;;6.18;4.97;;;;;;;22.18;67.00;100696.91;3541994;40;20050;-44
2021/06/12 05:57:07;;;;;;;5.35;4.80;;;;;;;22.41;66.80;100700.75;3542753;40;20070;-45
2021/06/12 05:59:34;;;;;;;5.68;4.50;;;;;;;22.30;65.87;100690.56;3541894;40;20109;-47
2021/06/12 06:02:01;;;;;;;5.07;4.45;;;;;;;22.94;65.41;100704.75;3543251;40;20086;-49
2021/06/12 06:04:28;;;;;;;7.72;4.00;;;;;;;22.75;66.03;100693.84;3543562;40;20082;-49
2021/06/12 06:06:55;;;;;;;5.25;4.22;;;;;;;22.80;64.10;100702.44;3543000;40;20066;-46
2021/06/12 06:09:22;;;;;;;3.88;3.53;;;;;;;22.93;64.89;100708.25;3542906;40;20061;-46
2021/06/12 06:11:49;;;;;;;7.13;3.75;;;;;;;22.70;65.44;100703.56;3542836;40;20051;-44
2021/06/12 06:14:16;;;;;;;3.92;3.60;;;;;;;22.59;65.40;100697.72;3542609;40;20057;-45
2021/06/12 06:16:43;;;;;;;4.05;3.60;;;;;;;22.36;66.91;100696.50;3542762;40;20453;-44
2021/06/12 06:19:11;;;;;;;4.45;3.67;;;;;;;22.31;66.05;100700.97;3542671;40;20101;-44
2021/06/12 06:21:38;;;;;;;4.78;4.00;;;;;;;21.82;67.26;100701.16;3539564;40;20066;-44
2021/06/12 06:24:05;;;;;;;4.45;4.05;;;;;;;22.07;67.12;100702.34;3539324;40;20139;-45
2021/06/12 06:26:32;;;;;;;4.05;3.60;;;;;;;21.94;67.46;100698.28;3537899;40;20105;-50
2021/06/12 06:31:26;;;;;;;3.85;3.55;;;;;;;22.00;67.87;100705.09;3562252;40;20052;-50
2021/06/12 06:33:54;;;;;;;4.53;4.10;;;;;;;21.98;69.68;100710.38;3561662;40;20089;-47
2021/06/12 06:36:21;;;;;;;4.70;4.30;;;;;;;21.82;70.29;100709.84;3562107;40;20216;-47
2021/06/12 06:38:49;;;;;;;5.22;4.72;;;;;;;21.74;68.57;100710.88;3561183;40;20081;-47
2021/06/12 06:41:18;;;;;;;5.38;4.88;;;;;;;21.54;70.50;100703.47;3549770;40;20042;-47
2021/06/12 06:43:48;;;;;;;5.18;4.78;;;;;;;21.45;70.25;100699.28;3548143;40;20073;-48
2021/06/12 06:46:15;;;;;;;6.13;5.07;;;;;;;21.40;70.54;100708.03;3548990;40;20078;-46
2021/06/12 06:48:44;;;;;;;5.00;4.60;;;;;;;21.26;70.39;100708.25;3547718;40;20404;-47
2021/06/12 06:51:11;;;;;;;5.55;4.95;;;;;;;21.31;70.55;100702.13;3548747;40;20050;-50
2021/06/12 06:53:38;;;;;;;7.15;4.32;;;;;;;21.27;71.31;100699.59;3546837;40;20090;-47
2021/06/12 06:56:07;;;;;;;5.53;4.28;;;;;;;21.26;71.13;100710.88;3543678;40;20068;-46
2021/06/12 06:58:35;;;;;;;5.35;4.85;;;;;;;21.46;70.45;100703.59;3542787;40;20060;-48
2021/06/12 07:01:09;;;;;;;9.23;4.85;;;;;;;21.24;70.29;100707.44;3542538;40;20327;-47
2021/06/12 07:03:36;;;;;;;5.15;4.75;;;;;;;21.05;70.68;100706.91;3547165;40;20053;-47
2021/06/12 07:06:03;;;;;;;4.97;4.47;;;;;;;21.33;70.42;100694.28;3548283;40;20071;-48
2021/06/12 07:08:30;;;;;;;5.95;4.38;;;;;;;21.11;70.96;100698.97;3547517;40;20087;-50
2021/06/12 07:10:57;;;;;;;4.68;4.20;;;;;;;21.44;70.07;100700.13;3548272;40;20065;-47
2021/06/12 07:13:24;;;;;;;5.13;4.22;;;;;;;21.26;71.01;100696.13;3547686;40;20061;-47
2021/06/12 07:15:52;;;;;;;5.50;4.97;;;;;;;21.08;71.14;100705.13;3547749;40;20045;-47
2021/06/12 07:18:19;;;;;;;4.05;3.65;;;;;;;21.24;71.01;100700.47;3548097;40;20101;-47
2021/06/12 07:20:47;;;;;;;4.90;4.32;;;;;;;21.38;70.66;100699.41;3552949;40;20090;-47
2021/06/12 07:23:16;;;;;;;6.53;4.85;;;;;;;21.43;70.17;100698.44;3550140;40;20439;-47
2021/06/12 07:25:47;;;;;;;5.03;4.63;;;;;;;21.35;70.42;100698.59;3550743;40;20057;-49
2021/06/12 07:28:15;;;;;;;4.90;4.47;;;;;;;21.61;69.56;100705.88;3549822;40;20074;-46
2021/06/12 07:30:43;;;;;;;5.47;4.97;;;;;;;21.86;69.67;100703.66;3542560;40;20062;-48
2021/06/12 07:33:13;;;;;;;4.78;4.38;;;;;;;21.78;69.50;100696.88;3550141;40;20082;-47
2021/06/12 07:35:41;;;;;;;5.47;4.97;;;;;;;22.07;68.81;100693.66;3546555;40;20062;-51
2021/06/12 07:38:09;;;;;;;5.93;4.88;;;;;;;22.16;68.40;100701.31;3550687;40;20033;-49
2021/06/12 07:40:38;;;;;;;5.47;4.95;;;;;;;22.59;67.35;100695.97;3552641;40;20057;-49
2021/06/12 07:43:09;;;;;;;4.82;4.32;;;;;;;22.93;65.87;100694.34;3549682;40;20073;-50
2021/06/12 07:45:39;;;;;;;5.65;5.20;;;;;;;23.11;65.95;100699.09;3546628;40;20101;-52
2021/06/12 07:48:15;;;;;;;6.57;5.95;;;;;;;23.03;65.00;100691.44;3542213;40;20053;-47
2021/06/12 07:50:45;;;;;;;6.63;6.03;;;;;;;23.08;66.09;100686.09;3547185;40;20050;-48
2021/06/12 07:53:12;;;;;;;7.63;6.90;;;;;;;22.73;64.77;100679.13;3549856;40;20038;-49
2021/06/12 07:55:43;;;;;;;8.27;7.15;;;;;;;22.80;64.89;100689.38;3547941;40;20091;-49
2021/06/12 07:58:12;;;;;;;9.40;6.88;;;;;;;22.63;65.13;100671.50;3546442;40;20064;-48
2021/06/12 08:00:43;;;;;;;8.20;7.38;;;;;;;22.36;66.75;100680.00;3546612;40;20065;-49
2021/06/12 08:03:12;;;;;;;7.57;6.45;;;;;;;22.75;66.18;100680.81;3549966;40;20340;-48
2021/06/12 08:05:40;;;;;;;7.72;6.60;;;;;;;22.48;68.11;100686.69;3548166;40;20047;-49
2021/06/12 08:08:07;;;;;;;10.15;7.85;;;;;;;22.10;67.39;100675.34;3545446;40;20062;-47
2021/06/12 08:10:34;;;;;;;8.43;7.15;;;;;;;22.40;68.02;100671.19;3547930;40;20065;-47
2021/06/12 08:13:03;;;;;;;9.10;7.18;;;;;;;22.16;68.82;100677.84;3547171;40;20058;-50
2021/06/12 08:15:34;;;;;;;8.10;7.38;;;;;;;22.24;68.21;100678.53;3545139;40;20090;-47
2021/06/12 08:18:05;;;;;;;9.65;6.82;;;;;;;22.53;67.45;100672.63;3549472;40;20097;-51
2021/06/12 08:20:36;;;;;;;8.90;8.00;;;;;;;22.28;66.90;100674.13;3548518;40;20054;-47
2021/06/12 08:23:04;;;;;;;8.93;8.02;;;;;;;22.40;66.87;100665.13;3550078;40;20038;-51
2021/06/12 08:25:32;;;;;;;9.25;6.85;;;;;;;22.34;67.49;100673.97;3548384;40;20061;-48
2021/06/12 08:28:10;;;;;;;8.43;7.53;;;;;;;22.25;67.02;100668.97;3549281;40;20058;-47
2021/06/12 08:30:38;;;;;;;9.32;7.90;;;;;;;22.18;67.53;100665.63;3546871;40;20043;-49
2021/06/12 08:33:08;;;;;;;10.30;7.35;;;;;;;22.25;67.35;100667.19;3544761;40;20037;-48
2021/06/12 08:35:36;;;;;;;8.23;7.25;;;;;;;22.53;68.27;100650.91;3547906;40;20046;-46
2021/06/12 08:38:03;;;;;;;7.97;7.18;;;;;;;22.84;66.53;100659.69;3548988;40;20090;-49
2021/06/12 08:40:33;;;;;;;11.23;7.68;;;;;;;22.99;66.22;100658.47;3539149;40;20282;-47
2021/06/12 08:43:00;;;;;;;8.38;7.57;;;;;;;23.37;64.73;100652.19;3549024;40;20057;-49
2021/06/12 08:45:29;;;;;;;9.77;8.57;;;;;;;23.19;64.05;100649.22;3548229;40;20073;-51
2021/06/12 08:47:57;;;;;;;8.25;7.45;;;;;;;22.89;65.08;100649.16;3548907;40;20545;-50
2021/06/12 08:50:26;;;;;;;8.90;8.00;;;;;;;22.83;65.87;100644.03;3539366;40;20445;-48
2021/06/12 08:52:55;;;;;;;9.32;8.40;;;;;;;23.09;63.54;100640.78;3547960;40;20064;-46
2021/06/12 08:55:28;;;;;;;9.75;8.20;;;;;;;22.84;64.49;100643.16;3545899;40;20057;-50
2021/06/12 08:57:55;;;;;;;8.90;7.18;;;;;;;23.42;64.07;100644.22;3548900;40;20050;-49
2021/06/12 09:00:23;;;;;;;11.15;8.88;;;;;;;23.48;62.60;100649.31;3549750;40;20054;-50
2021/06/12 09:03:13;;;;;;;10.95;8.77;;;;;;;23.72;61.50;100645.16;3549991;40;20055;-49
2021/06/12 09:05:44;;;;;;;11.45;8.55;;;;;;;23.36;62.34;100652.25;3547273;40;20082;-52
2021/06/12 09:08:12;;;;;;;9.68;8.68;;;;;;;23.34;61.99;100636.63;3545318;40;20043;-50
2021/06/12 09:10:49;;;;;;;9.32;8.23;;;;;;;23.49;62.17;100640.56;3547095;40;20117;-50
2021/06/12 09:13:17;;;;;;;9.75;8.75;;;;;;;22.92;65.08;100638.59;3546545;40;20081;-50
2021/06/12 09:15:51;;;;;;;10.40;8.07;;;;;;;22.75;65.49;100635.56;3550267;40;20417;-48
2021/06/12 09:18:42;;;;;;;10.38;8.32;;;;;;;22.95;65.53;100651.59;3550126;40;20034;-49
2021/06/12 09:21:22;;;;;;;10.18;9.07;;;;;;;22.69;65.47;100646.13;3548871;40;20327;-49
2021/06/12 09:23:52;;;;;;;12.32;9.38;;;;;;;22.47;66.56;100646.69;3548592;40;20090;-48
2021/06/12 09:26:21;;;;;;;11.32;9.77;;;;;;;22.42;66.72;100637.22;3549326;40;20062;-47
2021/06/12 09:28:55;;;;;;;13.13;10.60;;;;;;;22.67;66.29;100638.34;3546234;40;20050;-53
2021/06/12 09:31:27;;;;;;;12.02;10.45;;;;;;;23.32;64.52;100641.00;3548558;40;20046;-46
2021/06/12 09:33:56;;;;;;;12.10;10.90;;;;;;;23.25;64.59;100642.09;3548215;40;20392;-51
2021/06/12 09:36:33;;;;;;;12.75;10.80;;;;;;;23.35;64.67;100635.72;3548567;40;20324;-50
2021/06/12 09:39:21;;;;;;;14.52;11.70;;;;;;;22.91;65.78;100649.09;3549007;40;20057;-48
2021/06/12 09:41:54;;;;;;;13.23;9.90;;;;;;;22.75;66.75;100639.03;3556624;40;20658;-46
2021/06/12 09:44:36;;;;;;;11.18;9.98;;;;;;;22.69;67.07;100638.31;3559065;40;20393;-50
2021/06/12 09:47:10;;;;;;;12.70;10.35;;;;;;;22.61;67.28;100628.94;3558944;40;20108;-47
2021/06/12 09:49:39;;;;;;;11.77;9.82;;;;;;;22.20;68.67;100613.44;3555164;40;20097;-48
2021/06/12 09:52:12;;;;;;;13.23;11.18;;;;;;;22.17;68.40;100624.78;3545686;40;20101;-48
2021/06/12 09:54:44;;;;;;;12.65;10.38;;;;;;;22.41;67.92;100625.94;3546105;40;20117;-52
2021/06/12 09:57:16;;;;;;;12.57;9.43;;;;;;;22.19;69.53;100620.41;3545446;40;20056;-49
2021/06/12 09:59:51;;;;;;;12.27;10.48;;;;;;;22.05;69.96;100617.22;3547703;40;20301;-49
2021/06/12 10:02:46;;;;;;;15.30;9.80;;;;;;;22.12;70.14;100626.63;3548646;40;20041;-47
2021/06/12 10:05:16;;;;;;;15.83;11.13;;;;;;;21.94;70.02;100621.81;3547061;40;20061;-49
2021/06/12 10:07:43;;;;;;;11.68;10.43;;;;;;;22.00;70.59;100627.75;3547269;40;20168;-48
2021/06/12 10:10:13;;;;;;;14.68;9.82;;;;;;;21.82;72.51;100629.00;3547137;40;20046;-50
2021/06/12 10:12:41;;;;;;;12.43;10.85;;;;;;;21.24;77.12;100642.31;3547089;40;20078;-51
2021/06/12 10:15:11;;;;;;;14.50;12.32;;;;;;;20.57;82.37;100626.19;3545408;40;20053;-46
2021/06/12 10:17:45;;;;;;;16.10;12.65;;;;;;;20.19;85.88;100621.53;3545664;40;20058;-48
2021/06/12 10:20:15;;;;;;;18.02;13.90;;;;;;;20.24;86.81;100630.09;3545153;40;20053;-48
2021/06/12 10:22:45;;;;;;;15.60;14.00;;;;;;;20.11;88.21;100620.81;3546008;40;20098;-46
2021/06/12 10:25:15;;;;;;;16.08;14.43;;;;;;;20.17;87.97;100618.09;3548001;40;20042;-46
2021/06/12 10:27:43;;;;;;;18.23;16.25;;;;;;;20.05;89.95;100621.72;3545656;40;20054;-48
2021/06/12 10:30:14;;;;;;;18.35;15.85;;;;;;;19.99;90.48;100619.22;3545490;40;20105;-49
2021/06/12 10:32:49;;;;;;;18.15;15.20;;;;;;;20.32;88.77;100615.25;3547519;40;20093;-49
2021/06/12 10:35:20;;;;;;;17.05;14.95;;;;;;;20.35;87.75;100600.47;3547949;40;20078;-51
2021/06/12 10:38:16;;;;;;;16.42;14.82;;;;;;;20.27;89.91;100602.31;3550704;40;20136;-49
2021/06/12 10:40:53;;;;;;;18.08;14.90;;;;;;;20.47;89.14;100616.75;3546766;40;20060;-48
2021/06/12 10:43:22;;;;;;;17.10;15.00;;;;;;;20.72;88.56;100614.66;3547486;40;20113;-49
2021/06/12 10:46:09;;;;;;;18.15;15.80;;;;;;;20.90;87.29;100609.13;3553853;40;20649;-50
2021/06/12 10:48:59;;;;;;;17.67;15.13;;;;;;;20.96;87.21;100609.00;3556975;40;20058;-48
2021/06/12 10:51:27;;;;;;;15.68;13.20;;;;;;;21.53;84.90;100600.09;3547378;40;20042;-51
2021/06/12 10:54:07;;;;;;;15.75;13.75;;;;;;;21.77;84.18;100598.69;3548024;40;20362;-48
2021/06/12 10:56:40;;;;;;;14.60;12.60;;;;;;;21.92;82.84;100595.78;3547248;40;20323;-50
2021/06/12 10:59:09;;;;;;;14.05;12.63;;;;;;;22.24;80.40;100586.38;3545173;40;20452;-52
2021/06/12 11:01:36;;;;;;;13.45;12.05;;;;;;;22.84;76.59;100588.34;3548779;40;20078;-51
2021/06/12 11:09:12;;;;;;;11.43;9.63;;;;;;;25.77;65.97;100588.47;3546430;40;20052;-49
2021/06/12 11:11:51;;;;;;;10.27;9.27;;;;;;;26.68;60.04;100583.03;3548981;40;20778;-46
2021/06/12 11:14:21;;;;;;;9.80;8.80;;;;;;;27.00;57.76;100580.78;3547042;40;20054;-46
2021/06/12 11:17:12;;;;;;;9.05;8.13;;;;;;;26.40;56.16;100575.44;3549365;40;20148;-49
2021/06/12 11:19:46;;;;;;;7.78;7.03;;;;;;;26.61;57.89;100578.94;3547244;40;20431;-54
2021/06/12 11:22:35;;;;;;;8.35;7.00;;;;;;;26.96;55.41;100573.94;3547173;40;20052;-47
2021/06/12 11:25:08;;;;;;;8.73;6.07;;;;;;;27.11;56.03;100573.28;3550370;40;20328;-47
2021/06/12 11:27:41;;;;;;;6.53;5.93;;;;;;;26.73;53.46;100570.53;3548806;40;20038;-48
2021/06/12 11:30:20;;;;;;;6.10;5.38;;;;;;;25.92;56.13;100568.63;3550373;40;20085;-49
2021/06/12 11:33:09;;;;;;;5.22;4.82;;;;;;;26.12;56.73;100560.81;3553938;40;20094;-49
2021/06/12 11:35:44;;;;;;;5.15;4.75;;;;;;;25.30;57.00;100545.66;3552941;40;20062;-51
2021/06/12 11:38:18;;;;;;;6.18;4.90;;;;;;;25.62;55.50;100545.28;3546961;40;20038;-49
2021/06/12 11:41:13;;;;;;;6.57;4.40;;;;;;;24.87;55.87;100539.34;3547633;40;20086;-47